Archival Weather

Abadan

Abadan, Iran (OIAA)

Report from: Tuesday, July 19, 2022 12:00 PM UTC
Current time: Monday, September 26, 2022 3:10 AM UTC

Current weather
Weather history
Weather forecast

Temperature51.0°C (123.8°F)
Heat index44.9°C (112.9°F)
Dew point1.0°C (33.8°F)
Winds 8 kts (4.1 m/s, 9.2 mph) Northwest (310°)
Clouds Sky clear
Altimeter29.38 in.Hg (995 mB)
Relative humidity5 %
Density altitude4,668 ft. (1,423 m)
Remarks Ceiling and visibility OK
Flight conditions Visual Meteorological Conditions
Raw dataOIAA 191200Z 31008KT CAVOK 51/01 Q0995
An error has occurred. This application may no longer respond until reloaded. Reload 🗙